Terminal Aerodrome Forecast
Issued by NWS

Home | Current Version | Previous Version | Text Only | Print | Product List | Glossary On
Versions: 1 2 3 4 5 6 7 8 9 10 11 12 13 14 15 16 17 18 19 20 21 22 23 24 25 26 27
000
FTUS43 KDVN 270542
TAFCID
TAF
KCID 270542Z 2706/2806 VRB03KT P6SM BKN080
     FM271100 16004KT 5SM BR SCT080
     FM271500 17009KT P6SM SKC
     FM272200 13006KT P6SM BKN120
     FM280400 13010KT P6SM VCSH BKN040=

USA.gov is the U.S. government's official web portal to all federal, state and local government web resources and services.